sensor_id;sensor_type;location;lat;lon;timestamp;pressure;altitude;pressure_sealevel;temperature;humidity
56894;BME280;43392;50.078;13.704;2024-01-11T00:01:04;98147.13;;;-6.41;72.62
56894;BME280;43392;50.078;13.704;2024-01-11T00:03:36;98148.09;;;-6.42;72.93
56894;BME280;43392;50.078;13.704;2024-01-11T00:06:02;98142.22;;;-6.44;72.66
56894;BME280;43392;50.078;13.704;2024-01-11T00:08:29;98139.72;;;-6.46;72.67
56894;BME280;43392;50.078;13.704;2024-01-11T00:10:56;98139.88;;;-6.47;72.68
56894;BME280;43392;50.078;13.704;2024-01-11T00:13:22;98138.09;;;-6.47;72.68
56894;BME280;43392;50.078;13.704;2024-01-11T00:15:49;98136.44;;;-6.48;72.63
56894;BME280;43392;50.078;13.704;2024-01-11T00:18:16;98144.09;;;-6.46;72.75
56894;BME280;43392;50.078;13.704;2024-01-11T00:20:45;98143.00;;;-6.44;72.70
56894;BME280;43392;50.078;13.704;2024-01-11T00:23:11;98141.91;;;-6.41;72.18
56894;BME280;43392;50.078;13.704;2024-01-11T00:25:38;98140.94;;;-6.40;72.69
56894;BME280;43392;50.078;13.704;2024-01-11T00:28:05;98146.16;;;-6.40;72.73
56894;BME280;43392;50.078;13.704;2024-01-11T00:30:31;98142.06;;;-6.43;72.54
56894;BME280;43392;50.078;13.704;2024-01-11T00:32:57;98144.94;;;-6.46;72.58
56894;BME280;43392;50.078;13.704;2024-01-11T00:35:24;98138.22;;;-6.48;72.84
56894;BME280;43392;50.078;13.704;2024-01-11T00:37:52;98135.88;;;-6.51;72.60
56894;BME280;43392;50.078;13.704;2024-01-11T00:40:18;98140.56;;;-6.55;72.81
56894;BME280;43392;50.078;13.704;2024-01-11T00:42:45;98133.84;;;-6.57;72.76
56894;BME280;43392;50.078;13.704;2024-01-11T00:45:11;98145.22;;;-6.58;72.92
56894;BME280;43392;50.078;13.704;2024-01-11T00:47:38;98134.00;;;-6.59;72.77
56894;BME280;43392;50.078;13.704;2024-01-11T00:50:05;98128.06;;;-6.61;72.86
56894;BME280;43392;50.078;13.704;2024-01-11T00:52:32;98124.66;;;-6.61;72.74
56894;BME280;43392;50.078;13.704;2024-01-11T00:55:00;98126.28;;;-6.60;72.65
56894;BME280;43392;50.078;13.704;2024-01-11T00:57:27;98124.66;;;-6.61;72.65
56894;BME280;43392;50.078;13.704;2024-01-11T00:59:53;98123.84;;;-6.62;72.78
56894;BME280;43392;50.078;13.704;2024-01-11T01:02:20;98109.00;;;-6.61;72.64
56894;BME280;43392;50.078;13.704;2024-01-11T01:04:47;98108.84;;;-6.60;72.88
56894;BME280;43392;50.078;13.704;2024-01-11T01:07:13;98102.97;;;-6.62;72.85
56894;BME280;43392;50.078;13.704;2024-01-11T01:09:40;98111.19;;;-6.57;72.86
56894;BME280;43392;50.078;13.704;2024-01-11T01:12:08;98113.66;;;-6.55;73.00
56894;BME280;43392;50.078;13.704;2024-01-11T01:14:35;98109.25;;;-6.55;73.04
56894;BME280;43392;50.078;13.704;2024-01-11T01:17:01;98104.19;;;-6.56;73.02
56894;BME280;43392;50.078;13.704;2024-01-11T01:19:28;98116.53;;;-6.58;72.70
56894;BME280;43392;50.078;13.704;2024-01-11T01:21:54;98108.31;;;-6.63;72.66
56894;BME280;43392;50.078;13.704;2024-01-11T01:24:21;98103.09;;;-6.73;72.60
56894;BME280;43392;50.078;13.704;2024-01-11T01:26:48;98116.97;;;-6.72;72.65
56894;BME280;43392;50.078;13.704;2024-01-11T01:29:16;98116.28;;;-6.75;72.52
56894;BME280;43392;50.078;13.704;2024-01-11T01:31:42;98110.53;;;-6.78;72.69
56894;BME280;43392;50.078;13.704;2024-01-11T01:34:09;98116.97;;;-6.82;72.75
56894;BME280;43392;50.078;13.704;2024-01-11T01:36:35;98113.84;;;-6.86;72.86
56894;BME280;43392;50.078;13.704;2024-01-11T01:39:02;98118.22;;;-6.86;72.42
56894;BME280;43392;50.078;13.704;2024-01-11T01:41:29;98126.19;;;-6.88;72.60
56894;BME280;43392;50.078;13.704;2024-01-11T01:43:56;98121.94;;;-6.89;72.53
56894;BME280;43392;50.078;13.704;2024-01-11T01:46:24;98120.44;;;-6.91;72.49
56894;BME280;43392;50.078;13.704;2024-01-11T01:48:53;98118.91;;;-6.94;72.54
56894;BME280;43392;50.078;13.704;2024-01-11T01:51:20;98113.03;;;-6.96;72.61
56894;BME280;43392;50.078;13.704;2024-01-11T01:53:48;98107.41;;;-7.01;72.62
56894;BME280;43392;50.078;13.704;2024-01-11T01:56:16;98100.13;;;-7.07;72.81
56894;BME280;43392;50.078;13.704;2024-01-11T01:58:43;98097.41;;;-7.05;72.95
56894;BME280;43392;50.078;13.704;2024-01-11T02:01:10;98106.03;;;-7.05;72.63
56894;BME280;43392;50.078;13.704;2024-01-11T02:03:39;98091.50;;;-7.07;72.64
56894;BME280;43392;50.078;13.704;2024-01-11T02:06:07;98106.03;;;-7.05;72.83
56894;BME280;43392;50.078;13.704;2024-01-11T02:08:34;98100.28;;;-7.08;72.65
56894;BME280;43392;50.078;13.704;2024-01-11T02:11:02;98099.44;;;-7.09;72.75
56894;BME280;43392;50.078;13.704;2024-01-11T02:13:29;98100.69;;;-7.13;72.62
56894;BME280;43392;50.078;13.704;2024-01-11T02:15:56;98095.22;;;-7.19;72.26
56894;BME280;43392;50.078;13.704;2024-01-11T02:18:22;98084.91;;;-7.21;72.57
56894;BME280;43392;50.078;13.704;2024-01-11T02:20:50;98082.72;;;-7.25;72.47
56894;BME280;43392;50.078;13.704;2024-01-11T02:23:19;98073.94;;;-7.24;72.70
56894;BME280;43392;50.078;13.704;2024-01-11T02:25:49;98078.19;;;-7.23;72.68
56894;BME280;43392;50.078;13.704;2024-01-11T02:28:15;98079.69;;;-7.21;72.67
56894;BME280;43392;50.078;13.704;2024-01-11T02:30:42;98076.00;;;-7.18;72.75
56894;BME280;43392;50.078;13.704;2024-01-11T02:33:09;98070.09;;;-7.11;72.79
56894;BME280;43392;50.078;13.704;2024-01-11T02:35:37;98068.31;;;-7.01;72.76
56894;BME280;43392;50.078;13.704;2024-01-11T02:38:05;98069.38;;;-6.94;73.00
56894;BME280;43392;50.078;13.704;2024-01-11T02:40:33;98067.88;;;-6.87;73.05
56894;BME280;43392;50.078;13.704;2024-01-11T02:43:08;98063.47;;;-6.86;72.45
56894;BME280;43392;50.078;13.704;2024-01-11T02:45:35;98066.09;;;-6.86;72.51
56894;BME280;43392;50.078;13.704;2024-01-11T02:48:02;98063.50;;;-6.96;72.43
56894;BME280;43392;50.078;13.704;2024-01-11T02:50:28;98067.88;;;-6.96;72.49
56894;BME280;43392;50.078;13.704;2024-01-11T02:52:55;98060.06;;;-6.96;72.54
56894;BME280;43392;50.078;13.704;2024-01-11T02:55:22;98071.16;;;-6.94;72.62
56894;BME280;43392;50.078;13.704;2024-01-11T02:57:48;98069.78;;;-6.89;72.55
56894;BME280;43392;50.078;13.704;2024-01-11T03:00:16;98076.13;;;-6.91;72.30
56894;BME280;43392;50.078;13.704;2024-01-11T03:02:43;98069.94;;;-7.00;72.36
56894;BME280;43392;50.078;13.704;2024-01-11T03:05:10;98080.50;;;-7.11;72.23
56894;BME280;43392;50.078;13.704;2024-01-11T03:07:37;98075.31;;;-7.20;72.02
56894;BME280;43392;50.078;13.704;2024-01-11T03:10:05;98068.44;;;-7.31;72.11
56894;BME280;43392;50.078;13.704;2024-01-11T03:12:31;98071.19;;;-7.42;72.13
56894;BME280;43392;50.078;13.704;2024-01-11T03:14:58;98082.13;;;-7.48;72.36
56894;BME280;43392;50.078;13.704;2024-01-11T03:17:27;98082.69;;;-7.54;72.32
56894;BME280;43392;50.078;13.704;2024-01-11T03:19:54;98089.81;;;-7.56;72.51
56894;BME280;43392;50.078;13.704;2024-01-11T03:22:20;98085.56;;;-7.57;72.52
56894;BME280;43392;50.078;13.704;2024-01-11T03:24:47;98093.25;;;-7.56;72.32
56894;BME280;43392;50.078;13.704;2024-01-11T03:27:14;98085.97;;;-7.52;72.35
56894;BME280;43392;50.078;13.704;2024-01-11T03:29:41;98078.03;;;-7.51;72.33
56894;BME280;43392;50.078;13.704;2024-01-11T03:32:07;98077.06;;;-7.50;72.26
56894;BME280;43392;50.078;13.704;2024-01-11T03:34:39;98066.50;;;-7.48;72.11
56894;BME280;43392;50.078;13.704;2024-01-11T03:37:05;98058.59;;;-7.47;72.33
56894;BME280;43392;50.078;13.704;2024-01-11T03:39:34;98049.09;;;-7.48;72.11
56894;BME280;43392;50.078;13.704;2024-01-11T03:42:00;98045.41;;;-7.45;72.18
56894;BME280;43392;50.078;13.704;2024-01-11T03:44:29;98055.00;;;-7.46;72.19
56894;BME280;43392;50.078;13.704;2024-01-11T03:46:56;98057.47;;;-7.44;72.39
56894;BME280;43392;50.078;13.704;2024-01-11T03:49:23;98055.97;;;-7.47;72.01
56894;BME280;43392;50.078;13.704;2024-01-11T03:51:51;98060.88;;;-7.53;71.47
56894;BME280;43392;50.078;13.704;2024-01-11T03:54:17;98058.00;;;-7.60;71.50
56894;BME280;43392;50.078;13.704;2024-01-11T03:56:44;98065.53;;;-7.66;71.31
56894;BME280;43392;50.078;13.704;2024-01-11T03:59:11;98062.53;;;-7.71;71.25
56894;BME280;43392;50.078;13.704;2024-01-11T04:01:39;98066.38;;;-7.75;71.39
56894;BME280;43392;50.078;13.704;2024-01-11T04:04:06;98079.38;;;-7.75;71.49
56894;BME280;43392;50.078;13.704;2024-01-11T04:06:33;98068.97;;;-7.75;71.24
56894;BME280;43392;50.078;13.704;2024-01-11T04:09:01;98060.19;;;-7.74;71.42
56894;BME280;43392;50.078;13.704;2024-01-11T04:11:27;98068.13;;;-7.76;71.71
56894;BME280;43392;50.078;13.704;2024-01-11T04:13:54;98066.47;;;-7.77;71.24
56894;BME280;43392;50.078;13.704;2024-01-11T04:16:21;98056.22;;;-7.78;71.49
56894;BME280;43392;50.078;13.704;2024-01-11T04:18:47;98066.75;;;-7.80;71.91
56894;BME280;43392;50.078;13.704;2024-01-11T04:21:21;98078.97;;;-7.80;71.61
56894;BME280;43392;50.078;13.704;2024-01-11T04:23:48;98072.50;;;-7.86;71.33
56894;BME280;43392;50.078;13.704;2024-01-11T04:26:16;98093.34;;;-7.76;71.74
56894;BME280;43392;50.078;13.704;2024-01-11T04:28:44;98096.38;;;-7.71;71.77
56894;BME280;43392;50.078;13.704;2024-01-11T04:31:11;98090.34;;;-7.72;71.91
56894;BME280;43392;50.078;13.704;2024-01-11T04:33:39;98082.78;;;-7.75;71.55
56894;BME280;43392;50.078;13.704;2024-01-11T04:36:06;98095.81;;;-7.75;71.56
56894;BME280;43392;50.078;13.704;2024-01-11T04:38:33;98099.38;;;-7.76;72.16
56894;BME280;43392;50.078;13.704;2024-01-11T04:41:00;98091.16;;;-7.71;71.98
56894;BME280;43392;50.078;13.704;2024-01-11T04:43:28;98087.31;;;-7.67;72.14
56894;BME280;43392;50.078;13.704;2024-01-11T04:45:54;98072.78;;;-7.70;71.84
56894;BME280;43392;50.078;13.704;2024-01-11T04:48:21;98070.47;;;-7.73;71.94
56894;BME280;43392;50.078;13.704;2024-01-11T04:50:47;98079.38;;;-7.75;72.20
56894;BME280;43392;50.078;13.704;2024-01-11T04:53:14;98078.66;;;-7.77;71.90
56894;BME280;43392;50.078;13.704;2024-01-11T04:55:41;98081.28;;;-7.77;72.17
56894;BME280;43392;50.078;13.704;2024-01-11T04:58:07;98064.03;;;-7.78;72.17
56894;BME280;43392;50.078;13.704;2024-01-11T05:00:35;98064.56;;;-7.75;72.30
56894;BME280;43392;50.078;13.704;2024-01-11T05:03:02;98053.88;;;-7.72;72.27
56894;BME280;43392;50.078;13.704;2024-01-11T05:05:29;98049.34;;;-7.70;72.04
56894;BME280;43392;50.078;13.704;2024-01-11T05:07:55;98046.09;;;-7.62;72.22
56894;BME280;43392;50.078;13.704;2024-01-11T05:10:22;98052.81;;;-7.60;72.14
56894;BME280;43392;50.078;13.704;2024-01-11T05:12:49;98048.16;;;-7.56;71.92
56894;BME280;43392;50.078;13.704;2024-01-11T05:15:15;98049.53;;;-7.52;72.14
56894;BME280;43392;50.078;13.704;2024-01-11T05:17:43;98059.69;;;-7.49;72.39
56894;BME280;43392;50.078;13.704;2024-01-11T05:20:10;98053.78;;;-7.51;72.41
56894;BME280;43392;50.078;13.704;2024-01-11T05:22:37;98056.09;;;-7.48;72.59
56894;BME280;43392;50.078;13.704;2024-01-11T05:25:04;98065.72;;;-7.49;71.93
56894;BME280;43392;50.078;13.704;2024-01-11T05:27:31;98064.63;;;-7.56;71.90
56894;BME280;43392;50.078;13.704;2024-01-11T05:29:57;98067.88;;;-7.63;71.91
56894;BME280;43392;50.078;13.704;2024-01-11T05:32:24;98069.25;;;-7.69;71.73
56894;BME280;43392;50.078;13.704;2024-01-11T05:34:52;98060.44;;;-7.77;71.84
56894;BME280;43392;50.078;13.704;2024-01-11T05:37:19;98068.66;;;-7.82;71.87
56894;BME280;43392;50.078;13.704;2024-01-11T05:39:46;98080.16;;;-7.84;71.75
56894;BME280;43392;50.078;13.704;2024-01-11T05:42:12;98082.06;;;-7.86;71.91
56894;BME280;43392;50.078;13.704;2024-01-11T05:44:39;98079.88;;;-7.91;71.79
56894;BME280;43392;50.078;13.704;2024-01-11T05:47:06;98085.09;;;-7.91;71.45
56894;BME280;43392;50.078;13.704;2024-01-11T05:49:32;98074.13;;;-7.94;71.70
56894;BME280;43392;50.078;13.704;2024-01-11T05:52:00;98081.22;;;-7.96;71.70
56894;BME280;43392;50.078;13.704;2024-01-11T05:54:27;98083.97;;;-7.98;71.63
56894;BME280;43392;50.078;13.704;2024-01-11T05:56:54;98089.44;;;-8.01;71.39
56894;BME280;43392;50.078;13.704;2024-01-11T05:59:23;98082.28;;;-8.09;71.13
56894;BME280;43392;50.078;13.704;2024-01-11T06:01:49;98098.97;;;-8.11;71.50
56894;BME280;43392;50.078;13.704;2024-01-11T06:04:16;98102.81;;;-8.15;71.50
56894;BME280;43392;50.078;13.704;2024-01-11T06:06:43;98091.88;;;-8.19;71.61
56894;BME280;43392;50.078;13.704;2024-01-11T06:09:11;98094.31;;;-8.27;71.38
56894;BME280;43392;50.078;13.704;2024-01-11T06:11:37;98099.09;;;-8.22;71.33
56894;BME280;43392;50.078;13.704;2024-01-11T06:14:05;98095.66;;;-8.23;71.02
56894;BME280;43392;50.078;13.704;2024-01-11T06:16:32;98101.13;;;-8.26;71.17
56894;BME280;43392;50.078;13.704;2024-01-11T06:18:58;98098.69;;;-8.27;70.86
56894;BME280;43392;50.078;13.704;2024-01-11T06:21:25;98100.59;;;-8.29;71.09
56894;BME280;43392;50.078;13.704;2024-01-11T06:23:52;98103.44;;;-8.32;70.85
56894;BME280;43392;50.078;13.704;2024-01-11T06:26:20;98101.75;;;-8.43;70.94
56894;BME280;43392;50.078;13.704;2024-01-11T06:28:48;98102.72;;;-8.44;71.42
56894;BME280;43392;50.078;13.704;2024-01-11T06:31:14;98103.56;;;-8.43;71.05
56894;BME280;43392;50.078;13.704;2024-01-11T06:33:41;98102.72;;;-8.44;71.15
56894;BME280;43392;50.078;13.704;2024-01-11T06:36:08;98101.63;;;-8.41;70.88
56894;BME280;43392;50.078;13.704;2024-01-11T06:38:34;98096.44;;;-8.41;71.35
56894;BME280;43392;50.078;13.704;2024-01-11T06:41:01;98106.00;;;-8.42;70.80
56894;BME280;43392;50.078;13.704;2024-01-11T06:43:29;98100.81;;;-8.42;71.52
56894;BME280;43392;50.078;13.704;2024-01-11T06:45:56;98090.16;;;-8.39;71.07
56894;BME280;43392;50.078;13.704;2024-01-11T06:48:22;98092.38;;;-8.34;71.57
56894;BME280;43392;50.078;13.704;2024-01-11T06:50:49;98100.75;;;-8.31;71.22
56894;BME280;43392;50.078;13.704;2024-01-11T06:53:16;98102.38;;;-8.30;70.73
56894;BME280;43392;50.078;13.704;2024-01-11T06:55:42;98116.34;;;-8.31;70.49
56894;BME280;43392;50.078;13.704;2024-01-11T06:58:09;98122.75;;;-8.35;70.70
56894;BME280;43392;50.078;13.704;2024-01-11T07:00:37;98123.28;;;-8.41;70.74
56894;BME280;43392;50.078;13.704;2024-01-11T07:03:08;98107.34;;;-8.47;70.10
56894;BME280;43392;50.078;13.704;2024-01-11T07:05:34;98107.47;;;-8.49;70.55
56894;BME280;43392;50.078;13.704;2024-01-11T07:08:01;98107.34;;;-8.47;70.25
56894;BME280;43392;50.078;13.704;2024-01-11T07:10:28;98108.84;;;-8.45;70.21
56894;BME280;43392;50.078;13.704;2024-01-11T07:12:54;98115.34;;;-8.39;70.63
56894;BME280;43392;50.078;13.704;2024-01-11T07:15:21;98109.47;;;-8.32;70.42
56894;BME280;43392;50.078;13.704;2024-01-11T07:17:50;98101.13;;;-8.26;70.37
56894;BME280;43392;50.078;13.704;2024-01-11T07:20:18;98088.53;;;-8.21;70.76
56894;BME280;43392;50.078;13.704;2024-01-11T07:22:45;98095.84;;;-8.15;70.82
56894;BME280;43392;50.078;13.704;2024-01-11T07:25:11;98076.97;;;-8.07;70.69
56894;BME280;43392;50.078;13.704;2024-01-11T07:27:39;98080.78;;;-8.01;70.73
56894;BME280;43392;50.078;13.704;2024-01-11T07:30:07;98077.97;;;-7.89;70.64
56894;BME280;43392;50.078;13.704;2024-01-11T07:32:34;98072.09;;;-7.81;71.03
56894;BME280;43392;50.078;13.704;2024-01-11T07:35:02;98078.28;;;-7.73;71.33
56894;BME280;43392;50.078;13.704;2024-01-11T07:37:28;98107.34;;;-7.68;70.59
56894;BME280;43392;50.078;13.704;2024-01-11T07:39:55;98120.22;;;-7.76;70.16
56894;BME280;43392;50.078;13.704;2024-01-11T07:42:22;98108.78;;;-7.84;69.94
56894;BME280;43392;50.078;13.704;2024-01-11T07:44:48;98092.75;;;-7.89;70.45
56894;BME280;43392;50.078;13.704;2024-01-11T07:47:15;98098.78;;;-7.89;70.08
56894;BME280;43392;50.078;13.704;2024-01-11T07:49:42;98092.38;;;-7.85;70.81
56894;BME280;43392;50.078;13.704;2024-01-11T07:52:10;98097.19;;;-7.80;70.26
56894;BME280;43392;50.078;13.704;2024-01-11T07:54:37;98105.41;;;-7.75;70.15
56894;BME280;43392;50.078;13.704;2024-01-11T07:57:04;98100.22;;;-7.75;69.88
56894;BME280;43392;50.078;13.704;2024-01-11T07:59:32;98092.66;;;-7.78;70.11
56894;BME280;43392;50.078;13.704;2024-01-11T08:02:01;98086.47;;;-7.77;69.85
56894;BME280;43392;50.078;13.704;2024-01-11T08:04:28;98071.28;;;-7.72;69.92
56894;BME280;43392;50.078;13.704;2024-01-11T08:06:54;98054.72;;;-7.52;71.01
56894;BME280;43392;50.078;13.704;2024-01-11T08:09:23;98063.91;;;-7.38;70.23
56894;BME280;43392;50.078;13.704;2024-01-11T08:11:49;98071.59;;;-7.27;70.08
56894;BME280;43392;50.078;13.704;2024-01-11T08:14:17;98072.13;;;-7.24;69.76
56894;BME280;43392;50.078;13.704;2024-01-11T08:16:44;98082.84;;;-7.17;69.81
56894;BME280;43392;50.078;13.704;2024-01-11T08:19:11;98072.97;;;-7.14;69.70
56894;BME280;43392;50.078;13.704;2024-01-11T08:21:39;98094.38;;;-7.10;69.68
56894;BME280;43392;50.078;13.704;2024-01-11T08:24:07;98094.38;;;-7.10;69.50
56894;BME280;43392;50.078;13.704;2024-01-11T08:26:35;98065.81;;;-7.12;69.26
56894;BME280;43392;50.078;13.704;2024-01-11T08:29:01;98037.72;;;-7.08;69.38
56894;BME280;43392;50.078;13.704;2024-01-11T08:31:30;98036.19;;;-7.01;69.46
56894;BME280;43392;50.078;13.704;2024-01-11T08:33:57;98028.47;;;-6.84;69.46
56894;BME280;43392;50.078;13.704;2024-01-11T08:36:24;98026.94;;;-6.67;69.16
56894;BME280;43392;50.078;13.704;2024-01-11T08:38:51;98034.97;;;-6.51;69.63
56894;BME280;43392;50.078;13.704;2024-01-11T08:41:18;98029.16;;;-6.35;69.42
56894;BME280;43392;50.078;13.704;2024-01-11T08:43:46;98028.66;;;-6.21;69.38
56894;BME280;43392;50.078;13.704;2024-01-11T08:46:23;98046.59;;;-6.09;69.57
56894;BME280;43392;50.078;13.704;2024-01-11T08:48:49;98020.28;;;-5.97;69.44
56894;BME280;43392;50.078;13.704;2024-01-11T08:51:16;98010.91;;;-5.90;69.48
56894;BME280;43392;50.078;13.704;2024-01-11T08:53:43;98001.06;;;-5.79;69.90
56894;BME280;43392;50.078;13.704;2024-01-11T08:56:09;98002.31;;;-5.65;69.77
56894;BME280;43392;50.078;13.704;2024-01-11T08:58:36;98025.75;;;-5.56;70.19
56894;BME280;43392;50.078;13.704;2024-01-11T09:01:04;98020.25;;;-5.53;70.30
56894;BME280;43392;50.078;13.704;2024-01-11T09:03:32;98033.59;;;-5.56;70.21
56894;BME280;43392;50.078;13.704;2024-01-11T09:05:59;98036.38;;;-5.57;70.05
56894;BME280;43392;50.078;13.704;2024-01-11T09:08:26;98025.69;;;-5.64;70.05
56894;BME280;43392;50.078;13.704;2024-01-11T09:10:52;98014.78;;;-5.59;70.40
56894;BME280;43392;50.078;13.704;2024-01-11T09:13:19;98023.06;;;-5.46;70.24
56894;BME280;43392;50.078;13.704;2024-01-11T09:15:46;98033.25;;;-5.43;70.54
56894;BME280;43392;50.078;13.704;2024-01-11T09:18:14;98027.69;;;-5.40;70.93
56894;BME280;43392;50.078;13.704;2024-01-11T09:20:41;98026.38;;;-5.26;70.89
56894;BME280;43392;50.078;13.704;2024-01-11T09:23:08;98031.03;;;-5.12;70.70
56894;BME280;43392;50.078;13.704;2024-01-11T09:25:34;98033.28;;;-5.00;70.72
56894;BME280;43392;50.078;13.704;2024-01-11T09:28:01;98029.44;;;-4.88;70.42
56894;BME280;43392;50.078;13.704;2024-01-11T09:30:29;98043.72;;;-4.82;70.33
56894;BME280;43392;50.078;13.704;2024-01-11T09:32:55;98046.00;;;-4.79;70.53
56894;BME280;43392;50.078;13.704;2024-01-11T09:35:23;98054.50;;;-4.77;70.50
56894;BME280;43392;50.078;13.704;2024-01-11T09:37:51;98047.56;;;-4.68;70.55
56894;BME280;43392;50.078;13.704;2024-01-11T09:40:18;98040.53;;;-4.68;70.74
56894;BME280;43392;50.078;13.704;2024-01-11T09:42:45;98023.53;;;-4.64;70.79
56894;BME280;43392;50.078;13.704;2024-01-11T09:45:13;98019.84;;;-4.53;70.88
56894;BME280;43392;50.078;13.704;2024-01-11T09:47:41;98014.50;;;-4.44;71.16
56894;BME280;43392;50.078;13.704;2024-01-11T09:50:08;97997.81;;;-4.43;71.16
56894;BME280;43392;50.078;13.704;2024-01-11T09:52:39;98008.88;;;-4.23;71.68
56894;BME280;43392;50.078;13.704;2024-01-11T09:55:06;98015.47;;;-4.11;71.92
56894;BME280;43392;50.078;13.704;2024-01-11T09:57:35;98037.16;;;-3.93;71.69
56894;BME280;43392;50.078;13.704;2024-01-11T10:00:04;98043.53;;;-3.87;72.05
56894;BME280;43392;50.078;13.704;2024-01-11T10:02:32;98032.28;;;-3.80;71.89
56894;BME280;43392;50.078;13.704;2024-01-11T10:04:59;98026.53;;;-3.75;71.48
56894;BME280;43392;50.078;13.704;2024-01-11T10:07:29;98035.41;;;-3.76;71.70
56894;BME280;43392;50.078;13.704;2024-01-11T10:09:58;98020.84;;;-3.71;71.91
56894;BME280;43392;50.078;13.704;2024-01-11T10:12:26;98012.47;;;-3.74;72.20
56894;BME280;43392;50.078;13.704;2024-01-11T10:14:53;98024.97;;;-3.68;72.07
56894;BME280;43392;50.078;13.704;2024-01-11T10:17:20;98026.56;;;-3.67;71.92
56894;BME280;43392;50.078;13.704;2024-01-11T10:19:46;98018.88;;;-3.61;72.24
56894;BME280;43392;50.078;13.704;2024-01-11T10:22:13;98028.25;;;-3.50;72.33
56894;BME280;43392;50.078;13.704;2024-01-11T10:24:42;98011.41;;;-3.40;72.52
56894;BME280;43392;50.078;13.704;2024-01-11T10:27:10;98010.09;;;-3.27;72.05
56894;BME280;43392;50.078;13.704;2024-01-11T10:29:37;98003.88;;;-3.18;71.86
56894;BME280;43392;50.078;13.704;2024-01-11T10:32:04;98009.09;;;-3.02;71.65
56894;BME280;43392;50.078;13.704;2024-01-11T10:34:31;97996.13;;;-2.88;71.88
56894;BME280;43392;50.078;13.704;2024-01-11T10:36:59;97997.44;;;-2.67;71.61
56894;BME280;43392;50.078;13.704;2024-01-11T10:39:26;97996.28;;;-2.57;71.26
56894;BME280;43392;50.078;13.704;2024-01-11T10:42:00;98004.63;;;-2.53;71.77
56894;BME280;43392;50.078;13.704;2024-01-11T10:44:34;98022.84;;;-2.52;71.05
56894;BME280;43392;50.078;13.704;2024-01-11T10:47:03;98012.69;;;-2.55;71.79
56894;BME280;43392;50.078;13.704;2024-01-11T10:49:32;98004.16;;;-2.57;71.22
56894;BME280;43392;50.078;13.704;2024-01-11T10:52:00;98004.81;;;-2.55;71.78
56894;BME280;43392;50.078;13.704;2024-01-11T10:54:28;98008.06;;;-2.53;71.68
56894;BME280;43392;50.078;13.704;2024-01-11T10:56:58;98017.59;;;-2.52;71.79
56894;BME280;43392;50.078;13.704;2024-01-11T10:59:27;98019.41;;;-2.52;71.92
56894;BME280;43392;50.078;13.704;2024-01-11T11:01:57;98006.09;;;-2.51;71.92
56894;BME280;43392;50.078;13.704;2024-01-11T11:04:25;98011.00;;;-2.48;72.32
56894;BME280;43392;50.078;13.704;2024-01-11T11:06:55;98009.34;;;-2.41;71.93
56894;BME280;43392;50.078;13.704;2024-01-11T11:09:22;98004.22;;;-2.34;72.03
56894;BME280;43392;50.078;13.704;2024-01-11T11:11:49;97992.72;;;-2.25;71.72
56894;BME280;43392;50.078;13.704;2024-01-11T11:14:16;97997.22;;;-2.03;70.92
56894;BME280;43392;50.078;13.704;2024-01-11T11:16:44;97970.25;;;-1.89;71.31
56894;BME280;43392;50.078;13.704;2024-01-11T11:19:13;97967.63;;;-1.89;71.16
56894;BME280;43392;50.078;13.704;2024-01-11T11:21:42;97956.72;;;-1.86;71.04
56894;BME280;43392;50.078;13.704;2024-01-11T11:24:09;97952.94;;;-1.83;71.07
56894;BME280;43392;50.078;13.704;2024-01-11T11:26:36;97969.63;;;-1.68;71.66
56894;BME280;43392;50.078;13.704;2024-01-11T11:29:03;97974.00;;;-1.61;71.08
56894;BME280;43392;50.078;13.704;2024-01-11T11:31:37;97968.72;;;-1.53;71.27
56894;BME280;43392;50.078;13.704;2024-01-11T11:34:04;97965.66;;;-1.42;71.33
56894;BME280;43392;50.078;13.704;2024-01-11T11:36:33;97967.34;;;-1.26;70.86
56894;BME280;43392;50.078;13.704;2024-01-11T11:39:01;97962.13;;;-1.11;70.89
56894;BME280;43392;50.078;13.704;2024-01-11T11:41:30;97953.16;;;-1.02;70.84
56894;BME280;43392;50.078;13.704;2024-01-11T11:44:01;97942.53;;;-0.94;70.77
56894;BME280;43392;50.078;13.704;2024-01-11T11:46:28;97938.38;;;-0.89;70.88
56894;BME280;43392;50.078;13.704;2024-01-11T11:48:54;97932.59;;;-0.84;70.81
56894;BME280;43392;50.078;13.704;2024-01-11T11:51:22;97924.34;;;-0.81;71.32
56894;BME280;43392;50.078;13.704;2024-01-11T11:53:51;97920.16;;;-0.76;70.88
56894;BME280;43392;50.078;13.704;2024-01-11T11:56:19;97916.91;;;-0.78;71.38
56894;BME280;43392;50.078;13.704;2024-01-11T11:58:46;97914.91;;;-0.76;71.24
56894;BME280;43392;50.078;13.704;2024-01-11T12:01:15;97920.97;;;-0.75;71.53
56894;BME280;43392;50.078;13.704;2024-01-11T12:03:43;97910.81;;;-0.78;71.40
56894;BME280;43392;50.078;13.704;2024-01-11T12:06:15;97903.06;;;-0.80;71.86
56894;BME280;43392;50.078;13.704;2024-01-11T12:08:42;97911.34;;;-0.83;71.62
56894;BME280;43392;50.078;13.704;2024-01-11T12:11:13;97906.59;;;-0.87;71.84
56894;BME280;43392;50.078;13.704;2024-01-11T12:13:40;97913.25;;;-0.91;72.00
56894;BME280;43392;50.078;13.704;2024-01-11T12:16:06;97922.50;;;-0.95;72.43
56894;BME280;43392;50.078;13.704;2024-01-11T12:18:33;97915.78;;;-0.98;72.41
56894;BME280;43392;50.078;13.704;2024-01-11T12:21:00;97906.22;;;-0.99;72.42
56894;BME280;43392;50.078;13.704;2024-01-11T12:23:27;97901.44;;;-0.95;72.28
56894;BME280;43392;50.078;13.704;2024-01-11T12:25:55;97887.19;;;-1.01;72.20
56894;BME280;43392;50.078;13.704;2024-01-11T12:28:23;97903.63;;;-0.84;71.90
56894;BME280;43392;50.078;13.704;2024-01-11T12:30:50;97898.38;;;-0.70;71.33
56894;BME280;43392;50.078;13.704;2024-01-11T12:33:17;97885.38;;;-0.56;70.99
56894;BME280;43392;50.078;13.704;2024-01-11T12:35:44;97895.63;;;-0.47;71.17
56894;BME280;43392;50.078;13.704;2024-01-11T12:38:11;97898.19;;;-0.39;70.61
56894;BME280;43392;50.078;13.704;2024-01-11T12:40:38;97896.06;;;-0.29;70.28
56894;BME280;43392;50.078;13.704;2024-01-11T12:43:05;97881.13;;;-0.22;70.13
56894;BME280;43392;50.078;13.704;2024-01-11T12:45:35;97885.31;;;-0.13;70.09
56894;BME280;43392;50.078;13.704;2024-01-11T12:48:03;97883.31;;;-0.11;69.96
56894;BME280;43392;50.078;13.704;2024-01-11T12:50:30;97870.56;;;-0.07;69.57